createdAt,value
2022-12-05T00:00:23.263Z,29.43
2022-12-05T00:00:53.376Z,29.37
2022-12-05T00:01:23.492Z,29.43
2022-12-05T00:01:53.621Z,29.38
2022-12-05T00:02:23.681Z,29.40
2022-12-05T00:02:53.677Z,29.41
2022-12-05T00:03:23.784Z,29.43
2022-12-05T00:03:53.933Z,29.43
2022-12-05T00:04:23.964Z,29.38
2022-12-05T00:04:53.950Z,29.40
2022-12-05T00:05:24.040Z,29.38
2022-12-05T00:05:54.146Z,29.37
2022-12-05T00:06:24.267Z,29.38
2022-12-05T00:06:54.375Z,29.38
2022-12-05T00:07:24.482Z,29.38
2022-12-05T00:07:54.611Z,29.39
2022-12-05T00:08:24.713Z,29.37
2022-12-05T00:08:54.825Z,29.42
2022-12-05T00:09:24.953Z,29.40
2022-12-05T00:09:55.181Z,29.42
2022-12-05T00:10:24.994Z,29.38
2022-12-05T00:10:55.108Z,29.42
2022-12-05T00:11:25.216Z,29.45
2022-12-05T00:11:57.677Z,29.38
2022-12-05T00:12:25.449Z,29.42
2022-12-05T00:12:55.566Z,29.41
2022-12-05T00:13:25.678Z,29.44
2022-12-05T00:13:55.792Z,29.41
2022-12-05T00:14:25.924Z,29.44
2022-12-05T00:14:55.900Z,29.44
2022-12-05T00:15:26.016Z,29.41
2022-12-05T00:15:56.128Z,29.49
2022-12-05T00:16:26.331Z,29.46
2022-12-05T00:16:56.419Z,29.44
2022-12-05T00:17:26.386Z,29.47
2022-12-05T00:17:56.497Z,29.46
2022-12-05T00:18:26.611Z,29.47
2022-12-05T00:18:56.728Z,29.50
2022-12-05T00:19:26.721Z,29.52
2022-12-05T00:19:57.205Z,29.49
2022-12-05T00:20:26.932Z,29.53
2022-12-05T00:20:57.043Z,29.50
2022-12-05T00:21:27.154Z,29.50
2022-12-05T00:21:57.268Z,29.57
2022-12-05T00:22:27.384Z,29.57
2022-12-05T00:22:57.494Z,29.55
2022-12-05T00:23:27.613Z,29.55
2022-12-05T00:23:57.728Z,29.50
2022-12-05T00:24:27.716Z,29.57
2022-12-05T00:24:57.825Z,29.58
2022-12-05T00:25:27.941Z,29.58
2022-12-05T00:25:58.051Z,29.56
2022-12-05T00:26:28.165Z,29.57
2022-12-05T00:26:58.287Z,29.61
2022-12-05T00:27:28.397Z,29.58
2022-12-05T00:27:58.506Z,29.61
2022-12-05T00:28:28.620Z,29.59
2022-12-05T00:28:58.731Z,29.61
2022-12-05T00:29:28.849Z,29.63
2022-12-05T00:29:59.317Z,29.63
2022-12-05T00:30:29.062Z,29.58
2022-12-05T00:30:59.218Z,29.63
2022-12-05T00:31:29.429Z,29.61
2022-12-05T00:31:59.437Z,29.63
2022-12-05T00:32:29.337Z,29.56
2022-12-05T00:32:59.450Z,29.64
2022-12-05T00:33:29.564Z,29.61
2022-12-05T00:33:59.679Z,29.59
2022-12-05T00:34:29.795Z,29.58
2022-12-05T00:34:59.937Z,29.64
2022-12-05T00:35:29.902Z,29.58
2022-12-05T00:36:00.013Z,29.60
2022-12-05T00:36:30.122Z,29.63
2022-12-05T00:37:00.234Z,29.60
2022-12-05T00:37:30.347Z,29.59
2022-12-05T00:38:00.454Z,29.56
2022-12-05T00:38:30.567Z,29.60
2022-12-05T00:39:00.684Z,29.60
2022-12-05T00:39:30.798Z,29.58
2022-12-05T00:40:00.908Z,29.58
2022-12-05T00:40:31.016Z,29.57
2022-12-05T00:41:01.012Z,29.61
2022-12-05T00:41:31.124Z,29.61
2022-12-05T00:42:01.239Z,29.63
2022-12-05T00:42:31.346Z,29.58
2022-12-05T00:43:01.460Z,29.63
2022-12-05T00:43:31.570Z,29.58
2022-12-05T00:44:01.691Z,29.59
2022-12-05T00:44:31.805Z,29.58
2022-12-05T00:45:01.927Z,29.59
2022-12-05T00:45:32.097Z,29.61
2022-12-05T00:46:02.160Z,29.55
2022-12-05T00:46:32.181Z,29.58
2022-12-05T00:47:02.160Z,29.64
2022-12-05T00:47:32.238Z,29.66
2022-12-05T00:48:02.310Z,29.59
2022-12-05T00:48:32.378Z,29.58
2022-12-05T00:49:02.452Z,29.66
2022-12-05T00:49:32.525Z,29.64
2022-12-05T00:50:02.615Z,29.63
2022-12-05T00:50:32.817Z,29.60
2022-12-05T00:51:02.725Z,29.63
2022-12-05T00:51:32.805Z,29.63
2022-12-05T00:52:02.883Z,29.60
2022-12-05T00:52:32.954Z,29.63
2022-12-05T00:53:03.033Z,29.63
2022-12-05T00:53:33.100Z,29.63
2022-12-05T00:54:03.177Z,29.61
2022-12-05T00:54:33.248Z,29.61
2022-12-05T00:55:03.367Z,29.55
2022-12-05T00:55:33.360Z,29.57
2022-12-05T00:56:03.470Z,29.57
2022-12-05T00:56:33.580Z,29.57
2022-12-05T00:57:03.698Z,29.55
2022-12-05T00:57:33.809Z,29.57
2022-12-05T00:58:03.920Z,29.52
2022-12-05T00:58:34.029Z,29.50
2022-12-05T00:59:04.143Z,29.52
2022-12-05T00:59:34.255Z,29.54
2022-12-05T01:00:04.397Z,29.54
2022-12-05T01:00:34.385Z,29.44
2022-12-05T01:01:04.561Z,29.44
2022-12-05T01:01:34.563Z,29.46
2022-12-05T01:02:04.544Z,29.48
2022-12-05T01:02:34.658Z,29.46
2022-12-05T01:03:04.889Z,29.42
2022-12-05T01:03:34.941Z,29.45
2022-12-05T01:04:04.931Z,29.40
2022-12-05T01:04:35.039Z,29.37
2022-12-05T01:05:05.179Z,29.44
2022-12-05T01:05:35.165Z,29.40
2022-12-05T01:06:05.302Z,29.39
2022-12-05T01:06:35.391Z,29.34
2022-12-05T01:07:05.503Z,29.36
2022-12-05T01:07:35.676Z,29.36
2022-12-05T01:08:05.697Z,29.36
2022-12-05T01:08:35.667Z,29.34
2022-12-05T01:09:05.796Z,29.32
2022-12-05T01:09:35.899Z,29.34
2022-12-05T01:10:06.041Z,29.31
2022-12-05T01:10:36.022Z,29.28
2022-12-05T01:11:06.132Z,29.33
2022-12-05T01:11:41.030Z,29.31
2022-12-05T01:12:06.258Z,29.31
2022-12-05T01:12:36.373Z,29.31
2022-12-05T01:13:06.489Z,29.31
2022-12-05T01:13:36.606Z,29.26
2022-12-05T01:14:06.734Z,29.28
2022-12-05T01:14:36.828Z,29.28
2022-12-05T01:15:06.975Z,29.31
2022-12-05T01:15:36.965Z,29.30
2022-12-05T01:16:06.996Z,29.30
2022-12-05T01:16:37.070Z,29.28
2022-12-05T01:17:07.135Z,29.28
2022-12-05T01:17:37.108Z,29.26
2022-12-05T01:18:07.213Z,29.30
2022-12-05T01:18:37.346Z,29.26
2022-12-05T01:19:07.334Z,29.30
2022-12-05T01:19:37.446Z,29.31
2022-12-05T01:20:07.586Z,29.31
2022-12-05T01:20:37.573Z,29.26
2022-12-05T01:21:07.729Z,29.28
2022-12-05T01:21:37.809Z,29.25
2022-12-05T01:22:07.909Z,29.26
2022-12-05T01:22:38.024Z,29.25
2022-12-05T01:23:08.135Z,29.31
2022-12-05T01:23:38.245Z,29.31
2022-12-05T01:24:08.354Z,29.33
2022-12-05T01:24:38.465Z,29.31
2022-12-05T01:25:08.608Z,29.34
2022-12-05T01:25:38.590Z,29.34
2022-12-05T01:26:08.701Z,29.31
2022-12-05T01:26:38.818Z,29.31
2022-12-05T01:27:08.930Z,29.34
2022-12-05T01:27:39.046Z,29.37
2022-12-05T01:28:09.148Z,29.37
2022-12-05T01:28:39.318Z,29.35
2022-12-05T01:29:09.354Z,29.42
2022-12-05T01:29:39.347Z,29.40
2022-12-05T01:30:09.478Z,29.43
2022-12-05T01:30:39.462Z,29.43
2022-12-05T01:31:09.586Z,29.38
2022-12-05T01:31:39.816Z,29.42
2022-12-05T01:32:09.755Z,29.44
2022-12-05T01:32:39.746Z,29.46
2022-12-05T01:33:09.859Z,29.44
2022-12-05T01:33:39.973Z,29.48
2022-12-05T01:34:10.083Z,29.51
2022-12-05T01:34:40.198Z,29.49
2022-12-05T01:35:10.367Z,29.49
2022-12-05T01:35:40.353Z,29.52
2022-12-05T01:36:10.492Z,29.55
2022-12-05T01:36:40.575Z,29.52
2022-12-05T01:37:10.687Z,29.53
2022-12-05T01:37:40.804Z,29.55
2022-12-05T01:38:10.916Z,29.60
2022-12-05T01:38:41.090Z,29.63
2022-12-05T01:39:11.072Z,29.57
2022-12-05T01:39:41.184Z,29.60
2022-12-05T01:40:11.305Z,29.61
2022-12-05T01:40:41.412Z,29.63
2022-12-05T01:41:11.526Z,29.63
2022-12-05T01:41:41.639Z,29.63
2022-12-05T01:42:11.750Z,29.57
2022-12-05T01:42:41.869Z,29.63
2022-12-05T01:43:11.972Z,29.63
2022-12-05T01:43:42.120Z,29.63
2022-12-05T01:44:12.111Z,29.63
2022-12-05T01:44:42.229Z,29.69
2022-12-05T01:45:12.317Z,29.67
2022-12-05T01:45:42.465Z,29.61
2022-12-05T01:46:12.492Z,29.64
2022-12-05T01:46:42.531Z,29.64
2022-12-05T01:47:12.604Z,29.67
2022-12-05T01:47:42.681Z,29.69
2022-12-05T01:48:12.779Z,29.66
2022-12-05T01:48:42.838Z,29.63
2022-12-05T01:49:12.921Z,29.69
2022-12-05T01:49:42.990Z,29.67
2022-12-05T01:50:13.065Z,29.67
2022-12-05T01:50:43.145Z,29.70
2022-12-05T01:51:13.216Z,29.63
2022-12-05T01:51:43.320Z,29.64
2022-12-05T01:52:13.364Z,29.66
2022-12-05T01:52:43.447Z,29.63
2022-12-05T01:53:13.522Z,29.64
2022-12-05T01:53:43.594Z,29.67
2022-12-05T01:54:13.666Z,29.69
2022-12-05T01:54:43.742Z,29.71
2022-12-05T01:55:13.845Z,29.69
2022-12-05T01:55:43.962Z,29.66
2022-12-05T01:56:13.955Z,29.66
2022-12-05T01:56:44.062Z,29.71
2022-12-05T01:57:14.177Z,29.63
2022-12-05T01:57:44.294Z,29.69
2022-12-05T01:58:14.401Z,29.69
2022-12-05T01:58:44.517Z,29.69
2022-12-05T01:59:14.625Z,29.63
2022-12-05T01:59:44.737Z,29.69
2022-12-05T02:00:14.854Z,29.70
2022-12-05T02:00:44.990Z,29.66
2022-12-05T02:01:15.049Z,29.66
2022-12-05T02:01:45.144Z,29.69
2022-12-05T02:02:15.178Z,29.64
2022-12-05T02:02:45.221Z,29.66
2022-12-05T02:03:15.251Z,29.71
2022-12-05T02:03:45.361Z,29.64
2022-12-05T02:04:15.477Z,29.64
2022-12-05T02:04:45.587Z,29.69
2022-12-05T02:05:15.700Z,29.66
2022-12-05T02:05:45.816Z,29.66
2022-12-05T02:06:15.806Z,29.64
2022-12-05T02:06:45.952Z,29.66
2022-12-05T02:07:16.027Z,29.63
2022-12-05T02:07:46.162Z,29.64
2022-12-05T02:08:16.221Z,29.61
2022-12-05T02:08:46.246Z,29.64
2022-12-05T02:09:16.356Z,29.69
2022-12-05T02:09:46.461Z,29.64
2022-12-05T02:10:16.576Z,29.64
2022-12-05T02:10:46.692Z,29.63
2022-12-05T02:11:16.797Z,29.63
2022-12-05T02:11:46.917Z,29.67
2022-12-05T02:12:17.023Z,29.66
2022-12-05T02:12:47.135Z,29.63
2022-12-05T02:13:17.248Z,29.66
2022-12-05T02:13:47.360Z,29.64
2022-12-05T02:14:17.488Z,29.57
2022-12-05T02:14:47.474Z,29.61
2022-12-05T02:15:17.590Z,29.61
2022-12-05T02:15:52.316Z,29.57
2022-12-05T02:16:17.741Z,29.60
2022-12-05T02:16:47.867Z,29.57
2022-12-05T02:17:17.824Z,29.59
2022-12-05T02:17:47.936Z,29.62
2022-12-05T02:18:18.047Z,29.57
2022-12-05T02:18:48.159Z,29.60
2022-12-05T02:19:18.284Z,29.56
2022-12-05T02:19:48.271Z,29.52
2022-12-05T02:20:18.380Z,29.54
2022-12-05T02:20:48.503Z,29.57
2022-12-05T02:21:18.611Z,29.49
2022-12-05T02:21:48.757Z,29.51
2022-12-05T02:22:18.836Z,29.54
2022-12-05T02:22:48.947Z,29.50
2022-12-05T02:23:19.061Z,29.46
2022-12-05T02:23:49.174Z,29.50
2022-12-05T02:24:19.288Z,29.46
2022-12-05T02:24:49.401Z,29.44
2022-12-05T02:25:19.512Z,29.40
2022-12-05T02:25:49.628Z,29.46
2022-12-05T02:26:19.739Z,29.48
2022-12-05T02:26:49.850Z,29.46
2022-12-05T02:27:19.966Z,29.48
2022-12-05T02:27:50.078Z,29.45
2022-12-05T02:28:20.200Z,29.46
2022-12-05T02:28:50.302Z,29.42
2022-12-05T02:29:20.413Z,29.43
2022-12-05T02:29:50.523Z,29.48
2022-12-05T02:30:20.637Z,29.48
2022-12-05T02:30:50.760Z,29.45
2022-12-05T02:31:20.917Z,29.42
2022-12-05T02:31:50.960Z,29.42
2022-12-05T02:32:20.897Z,29.51
2022-12-05T02:32:51.005Z,29.43
2022-12-05T02:33:21.112Z,29.45
2022-12-05T02:33:51.225Z,29.42
2022-12-05T02:34:21.332Z,29.48
2022-12-05T02:34:51.443Z,29.48
2022-12-05T02:35:21.560Z,29.48
2022-12-05T02:35:51.672Z,29.48
2022-12-05T02:36:21.786Z,29.51
2022-12-05T02:36:51.924Z,29.50
2022-12-05T02:37:22.009Z,29.48
2022-12-05T02:37:52.122Z,29.52
2022-12-05T02:38:22.253Z,29.51
2022-12-05T02:38:52.244Z,29.49
2022-12-05T02:39:22.229Z,29.52
2022-12-05T02:39:52.342Z,29.51
2022-12-05T02:40:22.464Z,29.54
2022-12-05T02:40:52.574Z,29.57
2022-12-05T02:41:22.690Z,29.53
2022-12-05T02:41:52.801Z,29.57
2022-12-05T02:42:22.910Z,29.49
2022-12-05T02:42:53.020Z,29.55
2022-12-05T02:43:23.133Z,29.57
2022-12-05T02:43:53.251Z,29.60
2022-12-05T02:44:23.367Z,29.60
2022-12-05T02:44:53.467Z,29.61
2022-12-05T02:45:23.556Z,29.64
2022-12-05T02:45:53.693Z,29.58
2022-12-05T02:46:23.727Z,29.63
2022-12-05T02:46:53.671Z,29.61
2022-12-05T02:47:23.752Z,29.69
2022-12-05T02:47:53.814Z,29.59
2022-12-05T02:48:23.893Z,29.61
2022-12-05T02:48:53.963Z,29.63
2022-12-05T02:49:24.042Z,29.66
2022-12-05T02:49:54.110Z,29.64
2022-12-05T02:50:24.188Z,29.66
2022-12-05T02:50:54.288Z,29.67
2022-12-05T02:51:24.369Z,29.67
2022-12-05T02:51:54.471Z,29.66
2022-12-05T02:52:24.515Z,29.70
2022-12-05T02:52:54.597Z,29.67
2022-12-05T02:53:24.674Z,29.64
2022-12-05T02:53:54.751Z,29.69
2022-12-05T02:54:24.829Z,29.67
2022-12-05T02:54:54.897Z,29.69
2022-12-05T02:55:25.009Z,29.69
2022-12-05T02:55:55.135Z,29.64
2022-12-05T02:56:25.124Z,29.72
2022-12-05T02:56:55.237Z,29.69
2022-12-05T02:57:25.346Z,29.69
2022-12-05T02:57:55.344Z,29.69
2022-12-05T02:58:25.460Z,29.72
2022-12-05T02:58:55.577Z,29.67
2022-12-05T02:59:25.693Z,29.66
2022-12-05T02:59:56.119Z,29.69
2022-12-05T03:00:25.858Z,29.67
2022-12-05T03:00:56.108Z,29.66
2022-12-05T03:01:26.081Z,29.66
2022-12-05T03:01:56.094Z,29.66
2022-12-05T03:02:26.199Z,29.67
2022-12-05T03:02:56.315Z,29.67
2022-12-05T03:03:26.435Z,29.69
2022-12-05T03:03:56.591Z,29.64
2022-12-05T03:04:26.678Z,29.67
2022-12-05T03:04:56.622Z,29.61
2022-12-05T03:05:26.738Z,29.64
2022-12-05T03:05:56.861Z,29.69
2022-12-05T03:06:26.971Z,29.67
2022-12-05T03:06:57.116Z,29.64
2022-12-05T03:07:27.194Z,29.64
2022-12-05T03:07:57.382Z,29.67
2022-12-05T03:08:27.370Z,29.63
2022-12-05T03:08:57.486Z,29.63
2022-12-05T03:09:27.597Z,29.64
2022-12-05T03:09:57.996Z,29.66
2022-12-05T03:10:27.752Z,29.64
2022-12-05T03:10:57.935Z,29.63
2022-12-05T03:11:27.922Z,29.62
2022-12-05T03:11:58.028Z,29.69
2022-12-05T03:12:28.136Z,29.64
2022-12-05T03:12:58.249Z,29.66
2022-12-05T03:13:28.365Z,29.67
2022-12-05T03:13:58.477Z,29.69
2022-12-05T03:14:28.592Z,29.67
2022-12-05T03:14:58.707Z,29.63
2022-12-05T03:15:28.819Z,29.62
2022-12-05T03:15:58.933Z,29.58
2022-12-05T03:16:29.106Z,29.67
2022-12-05T03:16:59.136Z,29.61
2022-12-05T03:17:29.149Z,29.67
2022-12-05T03:17:59.254Z,29.59
2022-12-05T03:18:29.374Z,29.61
2022-12-05T03:18:59.477Z,29.59
2022-12-05T03:19:29.592Z,29.66
2022-12-05T03:20:00.331Z,29.64
2022-12-05T03:20:29.751Z,29.57
2022-12-05T03:20:59.872Z,29.63
2022-12-05T03:21:29.969Z,29.61
2022-12-05T03:22:00.108Z,29.61
2022-12-05T03:22:30.199Z,29.60
2022-12-05T03:23:00.315Z,29.53
2022-12-05T03:23:30.424Z,29.54
2022-12-05T03:24:00.546Z,29.57
2022-12-05T03:24:30.658Z,29.52
2022-12-05T03:25:00.767Z,29.51
2022-12-05T03:25:30.881Z,29.47
2022-12-05T03:26:00.989Z,29.49
2022-12-05T03:26:31.108Z,29.49
2022-12-05T03:27:01.225Z,29.54
2022-12-05T03:27:31.338Z,29.48
2022-12-05T03:28:01.446Z,29.46
2022-12-05T03:28:31.558Z,29.43
2022-12-05T03:29:01.674Z,29.53
2022-12-05T03:29:31.784Z,29.42
2022-12-05T03:30:02.149Z,29.40
2022-12-05T03:30:31.988Z,29.46
2022-12-05T03:31:02.097Z,29.38
2022-12-05T03:31:32.095Z,29.37
2022-12-05T03:32:02.204Z,29.39
2022-12-05T03:32:32.317Z,29.42
2022-12-05T03:33:02.427Z,29.39
2022-12-05T03:33:32.537Z,29.44
2022-12-05T03:34:02.656Z,29.40
2022-12-05T03:34:32.768Z,29.39
2022-12-05T03:35:02.883Z,29.36
2022-12-05T03:35:32.996Z,29.36
2022-12-05T03:36:03.099Z,29.39
2022-12-05T03:36:33.213Z,29.40
2022-12-05T03:37:03.351Z,29.35
2022-12-05T03:37:33.440Z,29.36
2022-12-05T03:38:03.550Z,29.37
2022-12-05T03:38:33.669Z,29.40
2022-12-05T03:39:03.659Z,29.39
2022-12-05T03:39:33.767Z,29.40
2022-12-05T03:40:03.882Z,29.42
2022-12-05T03:40:33.993Z,29.37
2022-12-05T03:41:04.104Z,29.42
2022-12-05T03:41:34.218Z,29.40
2022-12-05T03:42:04.329Z,29.47
2022-12-05T03:42:34.441Z,29.42
2022-12-05T03:43:04.559Z,29.42
2022-12-05T03:43:34.682Z,29.46
2022-12-05T03:44:04.753Z,29.43
2022-12-05T03:44:34.705Z,29.40
2022-12-05T03:45:04.803Z,29.42
2022-12-05T03:45:34.971Z,29.40
2022-12-05T03:46:04.967Z,29.43
2022-12-05T03:46:34.965Z,29.48
2022-12-05T03:47:05.049Z,29.48
2022-12-05T03:47:35.124Z,29.46
2022-12-05T03:48:05.200Z,29.54
2022-12-05T03:48:35.274Z,29.54
2022-12-05T03:49:05.348Z,29.48
2022-12-05T03:49:35.423Z,29.50
2022-12-05T03:50:05.491Z,29.53
2022-12-05T03:50:35.576Z,29.51
2022-12-05T03:51:05.643Z,29.48
2022-12-05T03:51:35.727Z,29.54
2022-12-05T03:52:05.824Z,29.51
2022-12-05T03:52:51.274Z,29.54
2022-12-05T03:53:21.557Z,29.55
2022-12-05T03:53:36.093Z,29.55
2022-12-05T03:54:06.164Z,29.57
2022-12-05T03:54:36.239Z,29.60
2022-12-05T03:55:06.333Z,29.57
2022-12-05T03:55:36.442Z,29.59
2022-12-05T03:56:06.555Z,29.60
2022-12-05T03:56:36.674Z,29.59
2022-12-05T03:57:06.781Z,29.63
2022-12-05T03:57:36.896Z,29.60
2022-12-05T03:58:07.008Z,29.65
2022-12-05T03:58:37.121Z,29.63
2022-12-05T03:59:07.228Z,29.63
2022-12-05T03:59:37.341Z,29.64
2022-12-05T04:00:07.449Z,29.69
2022-12-05T04:00:37.565Z,29.66
2022-12-05T04:01:07.761Z,29.67
2022-12-05T04:01:37.831Z,29.69
2022-12-05T04:02:07.865Z,29.70
2022-12-05T04:02:37.952Z,29.67
2022-12-05T04:03:08.091Z,29.77
2022-12-05T04:03:38.187Z,29.71
2022-12-05T04:04:08.090Z,29.74
2022-12-05T04:04:38.202Z,29.74
2022-12-05T04:05:08.311Z,29.75
2022-12-05T04:05:38.427Z,29.72
2022-12-05T04:06:08.539Z,29.74
2022-12-05T04:06:38.664Z,29.74
2022-12-05T04:07:08.651Z,29.79
2022-12-05T04:07:38.868Z,29.74
2022-12-05T04:08:08.960Z,29.73
2022-12-05T04:08:38.958Z,29.71
2022-12-05T04:09:13.774Z,29.77
2022-12-05T04:09:39.081Z,29.77
2022-12-05T04:10:09.191Z,29.72
2022-12-05T04:10:39.305Z,29.75
2022-12-05T04:11:09.429Z,29.75
2022-12-05T04:11:39.532Z,29.72
2022-12-05T04:12:09.662Z,29.78
2022-12-05T04:12:39.760Z,29.73
2022-12-05T04:13:09.875Z,29.77
2022-12-05T04:13:39.996Z,29.74
2022-12-05T04:14:10.104Z,29.75
2022-12-05T04:14:40.217Z,29.85
2022-12-05T04:15:10.328Z,29.78
2022-12-05T04:15:40.483Z,29.75
2022-12-05T04:16:10.554Z,29.78
2022-12-05T04:16:40.602Z,29.78
2022-12-05T04:17:10.704Z,29.79
2022-12-05T04:17:40.821Z,29.80
2022-12-05T04:18:10.932Z,29.75
2022-12-05T04:18:41.050Z,29.81
2022-12-05T04:19:11.159Z,29.78
2022-12-05T04:19:41.273Z,29.75
2022-12-05T04:20:11.391Z,29.77
2022-12-05T04:20:41.502Z,29.80
2022-12-05T04:21:11.617Z,29.78
2022-12-05T04:21:41.731Z,29.72
2022-12-05T04:22:11.844Z,29.80
2022-12-05T04:22:41.867Z,29.80
2022-12-05T04:23:11.955Z,29.80
2022-12-05T04:23:46.353Z,29.73
2022-12-05T04:24:12.084Z,29.85
2022-12-05T04:24:42.196Z,29.80
2022-12-05T04:25:12.306Z,29.81
2022-12-05T04:25:42.415Z,29.80
2022-12-05T04:26:12.530Z,29.80
2022-12-05T04:26:42.645Z,29.80
2022-12-05T04:27:12.753Z,29.83
2022-12-05T04:27:42.868Z,29.81
2022-12-05T04:28:18.098Z,29.83
2022-12-05T04:28:43.002Z,29.81
2022-12-05T04:29:12.992Z,29.89
2022-12-05T04:29:43.103Z,29.80
2022-12-05T04:30:13.215Z,29.80
2022-12-05T04:30:43.459Z,29.83
2022-12-05T04:31:13.514Z,29.81
2022-12-05T04:31:43.532Z,29.83
2022-12-05T04:32:13.638Z,29.81
2022-12-05T04:32:43.747Z,29.81
2022-12-05T04:33:13.864Z,29.86
2022-12-05T04:33:43.993Z,29.82
2022-12-05T04:34:13.980Z,29.81
2022-12-05T04:34:44.086Z,29.80
2022-12-05T04:35:14.201Z,29.80
2022-12-05T04:35:44.311Z,29.80
2022-12-05T04:36:14.416Z,29.80
2022-12-05T04:36:44.410Z,29.77
2022-12-05T04:37:14.522Z,29.79
2022-12-05T04:37:44.660Z,29.77
2022-12-05T04:38:14.752Z,29.74
2022-12-05T04:38:44.869Z,29.79
2022-12-05T04:39:18.248Z,29.74
2022-12-05T04:39:45.063Z,29.79
2022-12-05T04:40:15.177Z,29.74
2022-12-05T04:40:45.291Z,29.71
2022-12-05T04:41:15.407Z,29.71
2022-12-05T04:41:45.519Z,29.72
2022-12-05T04:42:15.643Z,29.73
2022-12-05T04:42:45.745Z,29.70
2022-12-05T04:43:15.863Z,29.71
2022-12-05T04:43:45.979Z,29.66
2022-12-05T04:44:16.091Z,29.65
2022-12-05T04:44:46.206Z,29.65
2022-12-05T04:45:16.284Z,29.67
2022-12-05T04:45:46.356Z,29.65
2022-12-05T04:46:16.511Z,29.59
2022-12-05T04:46:46.576Z,29.65
2022-12-05T04:47:16.631Z,29.60
2022-12-05T04:47:46.696Z,29.62
2022-12-05T04:48:16.775Z,29.61
2022-12-05T04:48:46.851Z,29.60
2022-12-05T04:49:16.921Z,29.73
2022-12-05T04:49:53.386Z,29.82
2022-12-05T04:50:17.100Z,29.79
2022-12-05T04:50:47.185Z,29.76
2022-12-05T04:51:17.255Z,29.84
2022-12-05T04:51:47.329Z,29.83
2022-12-05T04:52:17.405Z,29.90
2022-12-05T04:52:47.504Z,29.96
2022-12-05T04:53:17.554Z,29.98
2022-12-05T04:53:47.633Z,29.92
2022-12-05T04:54:17.714Z,29.96
2022-12-05T04:54:47.787Z,30.03
2022-12-05T04:55:17.884Z,29.99
2022-12-05T04:55:47.997Z,30.09
2022-12-05T04:56:18.110Z,30.06
2022-12-05T04:56:48.220Z,30.12
2022-12-05T04:57:18.333Z,30.13
2022-12-05T04:57:48.442Z,30.18
2022-12-05T04:58:18.559Z,30.31
2022-12-05T04:58:48.690Z,30.31
2022-12-05T04:59:18.674Z,30.41
2022-12-05T04:59:48.786Z,30.49
2022-12-05T05:00:18.895Z,30.49
2022-12-05T05:00:49.008Z,30.43
2022-12-05T05:01:19.164Z,30.40
2022-12-05T05:01:49.242Z,30.41
2022-12-05T05:02:19.225Z,30.35
2022-12-05T05:02:49.415Z,30.46
2022-12-05T05:03:19.547Z,30.37
2022-12-05T05:03:49.513Z,30.40
2022-12-05T05:04:19.498Z,30.38
2022-12-05T05:04:49.611Z,30.37
2022-12-05T05:05:19.721Z,30.40
2022-12-05T05:05:49.835Z,30.34
2022-12-05T05:06:19.949Z,30.36
2022-12-05T05:06:50.059Z,30.36
2022-12-05T05:07:20.172Z,30.36
2022-12-05T05:07:50.403Z,30.34
2022-12-05T05:08:20.384Z,30.36
2022-12-05T05:08:50.397Z,30.39
2022-12-05T05:09:20.500Z,30.34
2022-12-05T05:09:50.614Z,30.31
2022-12-05T05:10:20.725Z,30.31
2022-12-05T05:10:50.839Z,30.28
2022-12-05T05:11:20.956Z,30.29
2022-12-05T05:11:51.063Z,30.24
2022-12-05T05:12:21.182Z,30.26
2022-12-05T05:12:51.292Z,30.29
2022-12-05T05:13:21.406Z,30.22
2022-12-05T05:13:51.528Z,30.22
2022-12-05T05:14:21.634Z,30.28
2022-12-05T05:14:51.758Z,30.25
2022-12-05T05:15:21.865Z,30.36
2022-12-05T05:15:52.206Z,30.33
2022-12-05T05:16:22.101Z,30.26
2022-12-05T05:16:51.994Z,30.30
2022-12-05T05:17:22.107Z,30.30
2022-12-05T05:17:52.220Z,30.29
2022-12-05T05:18:22.352Z,30.35
2022-12-05T05:18:52.339Z,30.30
2022-12-05T05:19:22.448Z,30.30
2022-12-05T05:19:52.559Z,30.33
2022-12-05T05:20:22.674Z,30.35
2022-12-05T05:20:52.782Z,30.31
2022-12-05T05:21:22.898Z,30.49
2022-12-05T05:21:53.016Z,30.49
2022-12-05T05:22:23.127Z,30.42
2022-12-05T05:22:53.241Z,30.36
2022-12-05T05:23:23.389Z,30.55
2022-12-05T05:23:53.347Z,30.59
2022-12-05T05:24:23.483Z,30.58
2022-12-05T05:24:53.477Z,30.55
2022-12-05T05:25:23.595Z,30.53
2022-12-05T05:25:53.708Z,30.57
2022-12-05T05:26:23.821Z,30.60
2022-12-05T05:26:57.212Z,30.79
2022-12-05T05:27:23.949Z,30.84
2022-12-05T05:27:53.941Z,30.81
2022-12-05T05:28:24.067Z,30.74
2022-12-05T05:28:54.050Z,30.74
2022-12-05T05:29:24.166Z,30.68
2022-12-05T05:29:54.277Z,30.65
2022-12-05T05:30:24.394Z,30.68
2022-12-05T05:30:54.606Z,30.75
2022-12-05T05:31:24.710Z,30.89
2022-12-05T05:31:54.610Z,30.91
2022-12-05T05:32:24.729Z,30.83
2022-12-05T05:32:54.845Z,30.89
2022-12-05T05:33:24.849Z,30.78
2022-12-05T05:33:54.836Z,30.75
2022-12-05T05:34:24.955Z,30.75
2022-12-05T05:34:55.060Z,30.70
2022-12-05T05:35:25.178Z,30.69
2022-12-05T05:35:55.291Z,30.74
2022-12-05T05:36:25.415Z,30.75
2022-12-05T05:36:55.407Z,30.74
2022-12-05T05:37:25.523Z,30.77
2022-12-05T05:37:55.515Z,30.74
2022-12-05T05:38:25.663Z,30.78
2022-12-05T05:38:55.745Z,30.87
2022-12-05T05:39:25.865Z,30.76
2022-12-05T05:39:56.549Z,30.80
2022-12-05T05:40:26.031Z,30.75
2022-12-05T05:40:56.144Z,30.76
2022-12-05T05:41:26.257Z,30.92
2022-12-05T05:41:56.380Z,30.99
2022-12-05T05:42:26.481Z,30.97
2022-12-05T05:42:56.617Z,30.89
2022-12-05T05:43:26.605Z,30.84
2022-12-05T05:43:56.716Z,30.78
2022-12-05T05:44:26.723Z,30.78
2022-12-05T05:44:56.830Z,30.81
2022-12-05T05:45:26.905Z,30.87
2022-12-05T05:45:56.994Z,30.97
2022-12-05T05:46:27.155Z,30.92
2022-12-05T05:46:57.232Z,30.86
2022-12-05T05:47:27.173Z,30.86
2022-12-05T05:47:57.269Z,30.83
2022-12-05T05:48:27.354Z,30.74
2022-12-05T05:48:57.416Z,30.70
2022-12-05T05:49:27.489Z,30.71
2022-12-05T05:49:57.853Z,30.82
2022-12-05T05:50:27.571Z,30.71
2022-12-05T05:50:57.650Z,30.65
2022-12-05T05:51:27.856Z,30.65
2022-12-05T05:51:57.807Z,30.62
2022-12-05T05:52:27.885Z,30.62
2022-12-05T05:52:57.971Z,30.60
2022-12-05T05:53:28.067Z,30.59
2022-12-05T05:53:58.111Z,30.57
2022-12-05T05:54:28.188Z,30.53
2022-12-05T05:54:58.268Z,30.54
2022-12-05T05:55:28.383Z,30.50
2022-12-05T05:55:58.384Z,30.48
2022-12-05T05:56:28.495Z,30.45
2022-12-05T05:56:58.606Z,30.45
2022-12-05T05:57:28.722Z,30.56
2022-12-05T05:57:58.837Z,30.51
2022-12-05T05:58:28.952Z,30.62
2022-12-05T05:58:59.067Z,30.54
2022-12-05T05:59:29.180Z,30.53
2022-12-05T05:59:59.557Z,30.51
2022-12-05T06:00:29.321Z,30.51
2022-12-05T06:00:59.437Z,30.49
2022-12-05T06:01:29.551Z,30.54
2022-12-05T06:01:59.661Z,30.67
2022-12-05T06:02:29.800Z,30.77
2022-12-05T06:02:59.976Z,30.80
2022-12-05T06:03:30.113Z,30.83
2022-12-05T06:04:00.133Z,30.82
2022-12-05T06:04:29.924Z,30.80
2022-12-05T06:05:00.042Z,30.78
2022-12-05T06:05:30.157Z,30.83
2022-12-05T06:06:00.262Z,30.78
2022-12-05T06:06:30.379Z,30.83
2022-12-05T06:07:00.491Z,30.72
2022-12-05T06:07:30.665Z,30.78
2022-12-05T06:08:00.763Z,30.75
2022-12-05T06:08:30.673Z,30.72
2022-12-05T06:09:00.764Z,30.70
2022-12-05T06:09:30.871Z,30.67
2022-12-05T06:10:01.482Z,30.70
2022-12-05T06:10:30.982Z,30.75
2022-12-05T06:11:01.100Z,30.59
2022-12-05T06:11:31.211Z,30.59
2022-12-05T06:12:01.319Z,30.69
2022-12-05T06:12:31.438Z,30.61
2022-12-05T06:13:01.560Z,30.63
2022-12-05T06:13:31.665Z,30.58
2022-12-05T06:14:01.779Z,30.66
2022-12-05T06:14:31.889Z,30.55
2022-12-05T06:15:02.001Z,30.55
2022-12-05T06:15:32.120Z,30.54
2022-12-05T06:16:02.346Z,30.46
2022-12-05T06:16:32.318Z,30.47
2022-12-05T06:17:02.273Z,30.46
2022-12-05T06:17:32.399Z,30.43
2022-12-05T06:18:02.384Z,30.37
2022-12-05T06:18:32.509Z,30.43
2022-12-05T06:19:02.572Z,30.36
2022-12-05T06:19:32.528Z,30.36
2022-12-05T06:20:02.644Z,30.28
2022-12-05T06:20:32.762Z,30.26
2022-12-05T06:21:02.880Z,30.27
2022-12-05T06:21:32.994Z,30.19
2022-12-05T06:22:03.098Z,30.23
2022-12-05T06:22:33.234Z,30.21
2022-12-05T06:23:03.229Z,30.21
2022-12-05T06:23:33.471Z,30.18
2022-12-05T06:24:03.419Z,30.17
2022-12-05T06:24:33.537Z,30.12
2022-12-05T06:25:03.651Z,30.02
2022-12-05T06:25:33.755Z,30.03
2022-12-05T06:26:03.859Z,30.05
2022-12-05T06:26:33.975Z,30.02
2022-12-05T06:27:04.086Z,29.94
2022-12-05T06:27:34.218Z,29.95